createdAt,value
2023-03-26T00:00:20.630Z,16.27
2023-03-26T00:02:58.196Z,15.20
2023-03-26T00:05:41.358Z,16.07
2023-03-26T00:08:20.310Z,15.58
2023-03-26T00:10:50.430Z,16.02
2023-03-26T00:13:28.175Z,15.95
2023-03-26T00:15:58.309Z,16.24
2023-03-26T00:21:21.989Z,15.74
2023-03-26T00:23:52.579Z,14.82
2023-03-26T00:26:19.190Z,15.18
2023-03-26T00:34:25.037Z,15.29
2023-03-26T00:37:08.989Z,15.74
2023-03-26T00:39:41.546Z,16.08
2023-03-26T00:42:17.206Z,15.22
2023-03-26T00:47:33.158Z,15.89
2023-03-26T00:50:04.113Z,15.32
2023-03-26T00:52:39.235Z,15.59
2023-03-26T00:55:07.009Z,15.94
2023-03-26T00:57:42.872Z,15.54
2023-03-26T01:00:16.116Z,15.94
2023-03-26T01:02:48.684Z,15.90
2023-03-26T01:05:55.736Z,14.77
2023-03-26T01:08:44.378Z,14.05
2023-03-26T01:11:21.071Z,15.46
2023-03-26T01:13:59.066Z,14.73
2023-03-26T01:16:34.618Z,14.64
2023-03-26T01:19:01.244Z,14.24
2023-03-26T01:21:32.383Z,14.88
2023-03-26T01:24:10.248Z,14.19
2023-03-26T01:27:15.143Z,15.32
2023-03-26T01:29:44.797Z,15.28
2023-03-26T01:32:30.201Z,14.93
2023-03-26T01:35:17.392Z,14.90
2023-03-26T01:37:53.797Z,14.54
2023-03-26T01:40:31.990Z,14.87
2023-03-26T01:43:46.068Z,14.72
2023-03-26T01:46:17.363Z,14.29
2023-03-26T01:48:48.950Z,13.68
2023-03-26T01:51:31.296Z,13.77
2023-03-26T01:53:58.480Z,14.58
2023-03-26T01:57:00.351Z,14.60
2023-03-26T02:00:23.076Z,14.53
2023-03-26T02:03:18.408Z,14.44
2023-03-26T02:06:17.980Z,14.28
2023-03-26T02:09:26.093Z,14.17
2023-03-26T02:11:54.060Z,14.06
2023-03-26T02:14:28.214Z,13.83
2023-03-26T02:16:56.489Z,13.71
2023-03-26T02:22:18.281Z,12.79
2023-03-26T02:24:45.630Z,13.45
2023-03-26T02:27:26.078Z,13.25
2023-03-26T02:29:59.213Z,13.30
2023-03-26T02:32:28.650Z,13.31
2023-03-26T02:35:01.168Z,13.22
2023-03-26T02:37:33.863Z,12.87
2023-03-26T02:40:08.968Z,13.01
2023-03-26T02:42:35.674Z,13.02
2023-03-26T02:45:09.663Z,13.07
2023-03-26T02:47:36.235Z,13.06
2023-03-26T02:50:04.688Z,12.98
2023-03-26T02:52:32.877Z,12.69
2023-03-26T02:55:14.972Z,12.84
2023-03-26T02:57:50.696Z,13.13
2023-03-26T03:00:17.703Z,13.11
2023-03-26T03:02:51.822Z,13.04
2023-03-26T03:05:19.226Z,13.03
2023-03-26T03:07:46.681Z,12.77
2023-03-26T03:10:16.509Z,13.02
2023-03-26T03:12:43.094Z,12.94
2023-03-26T03:15:16.401Z,12.99
2023-03-26T03:17:54.504Z,12.89
2023-03-26T03:20:22.369Z,12.99
2023-03-26T03:22:49.196Z,13.01
2023-03-26T03:25:27.783Z,12.92
2023-03-26T03:28:02.349Z,12.83
2023-03-26T03:30:35.971Z,12.90
2023-03-26T03:33:03.984Z,12.89
2023-03-26T03:35:35.238Z,12.86
2023-03-26T03:38:02.382Z,12.45
2023-03-26T03:40:37.198Z,12.30
2023-03-26T03:43:21.856Z,12.71
2023-03-26T03:45:58.237Z,12.52
2023-03-26T03:48:38.786Z,12.64
2023-03-26T03:51:11.316Z,12.61
2023-03-26T03:53:40.793Z,12.29
2023-03-26T03:56:12.842Z,12.54
2023-03-26T03:58:48.451Z,12.24
2023-03-26T04:01:20.032Z,12.46
2023-03-26T04:03:47.374Z,12.46
2023-03-26T04:06:14.238Z,12.49
2023-03-26T04:08:41.125Z,12.18
2023-03-26T04:11:08.077Z,11.88
2023-03-26T04:13:50.303Z,11.56
2023-03-26T04:16:25.358Z,12.45
2023-03-26T04:18:56.311Z,12.21
2023-03-26T04:21:24.138Z,11.74
2023-03-26T04:23:50.825Z,12.24
2023-03-26T04:26:20.747Z,12.34
2023-03-26T04:28:59.860Z,11.97
2023-03-26T04:31:31.747Z,12.47
2023-03-26T04:34:10.987Z,12.48
2023-03-26T04:36:40.889Z,12.31
2023-03-26T04:39:13.358Z,12.25
2023-03-26T04:41:51.914Z,12.47
2023-03-26T04:44:22.497Z,12.33
2023-03-26T04:46:52.936Z,12.44
2023-03-26T04:49:19.817Z,12.07
2023-03-26T04:52:01.917Z,12.36
2023-03-26T04:54:34.916Z,12.35
2023-03-26T04:57:10.275Z,12.28
2023-03-26T04:59:48.311Z,12.03
2023-03-26T05:02:18.307Z,12.16
2023-03-26T05:05:04.254Z,12.40
2023-03-26T05:07:33.985Z,12.19
2023-03-26T05:10:06.573Z,11.92
2023-03-26T05:12:41.903Z,12.25
2023-03-26T05:18:01.309Z,12.34
2023-03-26T05:20:35.698Z,12.36
2023-03-26T05:23:02.880Z,12.32
2023-03-26T05:25:39.705Z,12.43
2023-03-26T05:28:06.922Z,12.37
2023-03-26T05:30:52.259Z,12.25
2023-03-26T05:33:32.246Z,11.06
2023-03-26T05:36:07.725Z,12.35
2023-03-26T05:38:34.475Z,12.43
2023-03-26T05:41:06.995Z,12.25
2023-03-26T05:43:36.899Z,11.52
2023-03-26T05:46:07.751Z,12.35
2023-03-26T05:48:34.678Z,12.06
2023-03-26T05:51:01.660Z,12.25
2023-03-26T05:53:28.417Z,12.36
2023-03-26T05:55:58.021Z,12.36
2023-03-26T05:58:26.291Z,12.34
2023-03-26T06:01:09.507Z,12.44
2023-03-26T06:03:43.147Z,12.52
2023-03-26T06:06:20.634Z,12.49
2023-03-26T06:09:00.951Z,12.51
2023-03-26T06:11:35.668Z,12.72
2023-03-26T06:14:02.427Z,12.73
2023-03-26T06:16:29.570Z,12.39
2023-03-26T06:18:59.222Z,12.79
2023-03-26T06:21:28.805Z,12.89
2023-03-26T06:23:58.408Z,13.12
2023-03-26T06:26:27.821Z,13.09
2023-03-26T06:29:00.369Z,12.71
2023-03-26T06:31:29.780Z,12.99
2023-03-26T06:33:56.517Z,13.12
2023-03-26T06:36:23.299Z,13.12
2023-03-26T06:38:52.859Z,12.85
2023-03-26T06:41:19.356Z,13.31
2023-03-26T06:43:48.793Z,13.50
2023-03-26T06:46:19.071Z,13.60
2023-03-26T06:48:48.140Z,13.81
2023-03-26T06:51:21.044Z,13.70
2023-03-26T06:53:47.601Z,14.02
2023-03-26T06:56:14.275Z,14.03
2023-03-26T06:58:41.347Z,14.44
2023-03-26T07:01:17.507Z,14.40
2023-03-26T07:04:16.251Z,14.50
2023-03-26T07:06:46.559Z,14.95
2023-03-26T07:09:13.253Z,14.74
2023-03-26T07:11:48.588Z,15.01
2023-03-26T07:14:22.184Z,15.08
2023-03-26T07:16:49.148Z,14.64
2023-03-26T07:22:01.002Z,14.07
2023-03-26T07:24:31.118Z,15.29
2023-03-26T07:27:29.309Z,14.94
2023-03-26T07:30:03.905Z,15.45
2023-03-26T07:32:51.901Z,15.51
2023-03-26T07:35:44.151Z,15.52
2023-03-26T07:38:22.471Z,15.37
2023-03-26T07:41:06.699Z,15.56
2023-03-26T07:43:54.553Z,15.57
2023-03-26T07:46:31.852Z,15.26
2023-03-26T07:49:01.903Z,15.54
2023-03-26T07:51:30.958Z,15.45
2023-03-26T07:54:00.546Z,15.66
2023-03-26T07:56:42.021Z,15.60
2023-03-26T07:59:41.050Z,14.86
2023-03-26T08:02:22.988Z,15.25
2023-03-26T08:05:10.497Z,15.43
2023-03-26T08:08:20.747Z,15.36
2023-03-26T08:11:43.410Z,15.33
2023-03-26T08:14:32.654Z,15.38
2023-03-26T08:17:22.880Z,15.10
2023-03-26T08:20:12.112Z,15.50
2023-03-26T08:22:41.950Z,15.48
2023-03-26T08:25:12.069Z,15.45
2023-03-26T08:27:58.956Z,15.16
2023-03-26T08:30:41.680Z,15.54
2023-03-26T08:33:38.241Z,14.21
2023-03-26T08:36:51.912Z,14.55
2023-03-26T08:39:25.177Z,15.77
2023-03-26T08:42:10.216Z,15.92
2023-03-26T08:44:49.560Z,14.75
2023-03-26T08:47:53.861Z,15.49
2023-03-26T08:50:30.382Z,15.98
2023-03-26T08:53:32.823Z,16.02
2023-03-26T08:56:22.946Z,16.05
2023-03-26T08:59:46.503Z,15.70
2023-03-26T09:02:58.471Z,16.05
2023-03-26T09:06:03.248Z,16.13
2023-03-26T09:08:54.250Z,16.16
2023-03-26T09:12:07.354Z,16.45
2023-03-26T09:15:06.530Z,16.51
2023-03-26T09:17:56.618Z,16.09
2023-03-26T09:21:05.093Z,17.27
2023-03-26T09:23:57.854Z,17.38
2023-03-26T09:26:59.921Z,17.80
2023-03-26T09:29:50.011Z,17.95
2023-03-26T09:32:35.892Z,17.99
2023-03-26T09:35:53.535Z,18.03
2023-03-26T09:38:55.676Z,18.04
2023-03-26T09:42:05.888Z,18.10
2023-03-26T09:45:23.972Z,18.11
2023-03-26T09:48:19.184Z,18.26
2023-03-26T09:51:33.276Z,18.44
2023-03-26T09:54:54.526Z,18.60
2023-03-26T09:57:58.547Z,18.43
2023-03-26T10:00:46.468Z,19.00
2023-03-26T10:03:32.162Z,19.15
2023-03-26T10:06:35.661Z,19.42
2023-03-26T10:09:30.823Z,19.59
2023-03-26T10:12:20.049Z,19.81
2023-03-26T10:15:06.997Z,20.11
2023-03-26T10:17:49.900Z,19.98
2023-03-26T10:20:44.772Z,20.71
2023-03-26T10:23:24.733Z,20.59
2023-03-26T10:26:30.061Z,21.13
2023-03-26T10:29:30.652Z,21.33
2023-03-26T10:32:18.841Z,21.12
2023-03-26T10:35:23.150Z,21.77
2023-03-26T10:38:09.043Z,22.00
2023-03-26T10:41:11.650Z,21.95
2023-03-26T10:44:07.810Z,22.00
2023-03-26T10:47:15.463Z,22.01
2023-03-26T10:50:23.093Z,22.34
2023-03-26T10:53:57.652Z,22.51
2023-03-26T10:56:43.722Z,22.76
2023-03-26T10:59:14.680Z,22.79
2023-03-26T11:01:54.852Z,22.80
2023-03-26T11:04:52.982Z,23.02
2023-03-26T11:10:57.170Z,22.91
2023-03-26T11:13:30.215Z,22.85
2023-03-26T11:16:20.136Z,22.97
2023-03-26T11:19:05.627Z,22.75
2023-03-26T11:22:18.058Z,22.63
2023-03-26T11:25:22.431Z,23.03
2023-03-26T11:28:22.855Z,23.08
2023-03-26T11:31:23.307Z,23.19
2023-03-26T11:34:06.220Z,21.77
2023-03-26T11:36:43.896Z,23.27
2023-03-26T11:39:40.504Z,23.28
2023-03-26T11:42:21.324Z,22.54
2023-03-26T11:45:08.335Z,22.36
2023-03-26T11:47:48.337Z,22.59
2023-03-26T11:50:28.394Z,21.88
2023-03-26T11:53:06.298Z,22.59
2023-03-26T11:55:44.328Z,22.24
2023-03-26T11:58:54.690Z,22.72
2023-03-26T12:01:50.675Z,21.81
2023-03-26T12:04:40.854Z,23.35
2023-03-26T12:07:37.798Z,23.80
2023-03-26T12:10:20.823Z,23.74
2023-03-26T12:12:54.121Z,23.42
2023-03-26T12:15:23.823Z,23.83
2023-03-26T12:18:00.828Z,23.03
2023-03-26T12:20:39.358Z,24.03
2023-03-26T12:23:10.752Z,23.78
2023-03-26T12:25:39.267Z,23.63
2023-03-26T12:28:19.185Z,23.54
2023-03-26T12:31:04.237Z,23.46
2023-03-26T12:33:45.176Z,23.31
2023-03-26T12:36:23.791Z,23.16
2023-03-26T12:39:17.065Z,22.92
2023-03-26T12:44:43.007Z,22.60
2023-03-26T12:44:59.019Z,22.18
2023-03-26T12:47:59.261Z,22.29
2023-03-26T12:50:36.527Z,21.89
2023-03-26T12:53:19.308Z,22.29
2023-03-26T12:56:00.588Z,22.36
2023-03-26T12:59:04.428Z,22.08
2023-03-26T13:02:05.430Z,22.17
2023-03-26T13:04:55.052Z,21.89
2023-03-26T13:07:47.764Z,21.66
2023-03-26T13:10:36.567Z,21.95
2023-03-26T13:13:46.966Z,21.91
2023-03-26T13:16:56.919Z,21.71
2023-03-26T13:19:35.785Z,21.28
2023-03-26T13:22:17.957Z,21.65
2023-03-26T13:25:20.019Z,21.68
2023-03-26T13:27:59.039Z,21.67
2023-03-26T13:30:43.624Z,21.81
2023-03-26T13:33:16.529Z,21.88
2023-03-26T13:36:23.740Z,21.70
2023-03-26T13:39:17.914Z,21.60
2023-03-26T13:41:47.807Z,21.56
2023-03-26T13:44:20.708Z,21.75
2023-03-26T13:47:03.073Z,21.59
2023-03-26T13:49:48.947Z,21.62
2023-03-26T13:52:47.826Z,21.59
2023-03-26T13:55:23.374Z,21.94
2023-03-26T13:58:39.449Z,20.98
2023-03-26T14:01:19.562Z,20.83
2023-03-26T14:04:18.101Z,21.46
2023-03-26T14:07:07.406Z,20.97
2023-03-26T14:09:57.010Z,20.26
2023-03-26T14:12:52.602Z,21.57
2023-03-26T14:15:31.064Z,21.59
2023-03-26T14:18:37.378Z,21.58
2023-03-26T14:21:38.310Z,20.80
2023-03-26T14:24:44.568Z,21.78
2023-03-26T14:27:59.128Z,20.73
2023-03-26T14:30:49.308Z,21.32
2023-03-26T14:34:02.234Z,21.38
2023-03-26T14:37:02.389Z,21.41
2023-03-26T14:40:20.860Z,21.37
2023-03-26T14:43:14.349Z,21.24
2023-03-26T14:46:28.800Z,21.28
2023-03-26T14:56:04.306Z,20.13
2023-03-26T14:58:58.113Z,20.79
2023-03-26T15:02:05.176Z,21.10
2023-03-26T15:05:09.983Z,20.96
2023-03-26T15:08:04.522Z,21.08
2023-03-26T15:11:11.829Z,20.96
2023-03-26T15:14:19.088Z,21.03
2023-03-26T15:17:23.822Z,21.07
2023-03-26T15:20:13.199Z,20.92
2023-03-26T15:23:17.074Z,20.51
2023-03-26T15:26:31.725Z,20.79
2023-03-26T15:29:20.306Z,20.64
2023-03-26T15:32:28.001Z,20.68
2023-03-26T15:35:00.700Z,20.48
2023-03-26T15:37:59.036Z,20.36
2023-03-26T15:40:36.546Z,20.05
2023-03-26T15:43:08.003Z,20.41
2023-03-26T15:48:42.448Z,20.32
2023-03-26T15:51:26.166Z,19.82
2023-03-26T15:54:03.670Z,20.12
2023-03-26T15:57:09.083Z,20.27
2023-03-26T15:59:42.107Z,20.34
2023-03-26T16:02:26.751Z,20.46
2023-03-26T16:05:03.561Z,20.25
2023-03-26T16:08:07.392Z,20.39
2023-03-26T16:10:56.192Z,20.41
2023-03-26T16:13:26.415Z,20.22
2023-03-26T16:16:15.330Z,20.17
2023-03-26T16:18:44.144Z,20.14
2023-03-26T16:21:31.164Z,20.14
2023-03-26T16:24:12.162Z,19.62
2023-03-26T16:26:45.684Z,19.91
2023-03-26T16:29:36.437Z,19.71
2023-03-26T16:32:34.319Z,19.45
2023-03-26T16:35:43.945Z,19.29
2023-03-26T16:38:16.192Z,18.90
2023-03-26T16:44:16.096Z,19.46
2023-03-26T16:47:06.490Z,19.52
2023-03-26T16:50:12.171Z,19.55
2023-03-26T16:52:56.745Z,19.48
2023-03-26T16:55:42.486Z,18.99
2023-03-26T16:58:41.120Z,19.38
2023-03-26T17:03:54.716Z,18.44
2023-03-26T17:06:53.407Z,19.36
2023-03-26T17:09:40.092Z,18.71
2023-03-26T17:12:34.522Z,19.08
2023-03-26T17:15:27.591Z,19.02
2023-03-26T17:18:16.148Z,18.77
2023-03-26T17:21:14.112Z,19.05
2023-03-26T17:24:15.331Z,18.32
2023-03-26T17:27:03.242Z,18.08
2023-03-26T17:29:58.306Z,17.94
2023-03-26T17:32:45.613Z,17.58
2023-03-26T17:35:15.765Z,17.18
2023-03-26T17:37:56.615Z,17.17
2023-03-26T17:40:46.408Z,16.36
2023-03-26T17:43:42.401Z,16.71
2023-03-26T17:46:40.095Z,16.25
2023-03-26T17:49:13.006Z,16.13
2023-03-26T17:52:06.317Z,16.04
2023-03-26T17:54:36.204Z,15.93
2023-03-26T17:57:17.381Z,15.39
2023-03-26T17:59:46.332Z,15.30
2023-03-26T18:02:21.172Z,14.74
2023-03-26T18:04:58.401Z,14.87
2023-03-26T18:08:02.415Z,14.10
2023-03-26T18:10:46.436Z,14.13
2023-03-26T18:13:22.240Z,14.50
2023-03-26T18:16:12.337Z,14.23
2023-03-26T18:18:50.551Z,12.79
2023-03-26T18:21:30.365Z,13.10
2023-03-26T18:23:59.785Z,12.67
2023-03-26T18:26:46.192Z,12.19
2023-03-26T18:29:22.185Z,13.10
2023-03-26T18:31:54.506Z,12.52
2023-03-26T18:34:22.091Z,12.39
2023-03-26T18:37:20.491Z,13.36
2023-03-26T18:40:20.122Z,13.36
2023-03-26T18:42:56.839Z,12.24
2023-03-26T18:45:35.919Z,12.82
2023-03-26T18:48:20.645Z,12.85
2023-03-26T18:51:04.951Z,13.17
2023-03-26T18:54:00.371Z,13.37
2023-03-26T18:56:31.035Z,13.32
2023-03-26T18:59:00.656Z,13.36
2023-03-26T19:01:33.309Z,12.99
2023-03-26T19:04:04.561Z,13.17
2023-03-26T19:06:38.919Z,12.88
2023-03-26T19:12:08.085Z,13.28
2023-03-26T19:14:51.549Z,13.79
2023-03-26T19:17:20.146Z,12.73
2023-03-26T19:22:31.627Z,12.91
2023-03-26T19:25:01.534Z,13.26
2023-03-26T19:27:36.002Z,12.90
2023-03-26T19:30:03.346Z,12.93
2023-03-26T19:32:33.149Z,13.34
2023-03-26T19:35:04.904Z,12.92
2023-03-26T19:37:51.472Z,13.05
2023-03-26T19:40:30.478Z,13.32
2023-03-26T19:43:09.150Z,13.07
2023-03-26T19:45:36.140Z,12.86
2023-03-26T19:48:46.013Z,12.54
2023-03-26T19:51:24.176Z,12.23
2023-03-26T19:54:00.677Z,13.70
2023-03-26T19:56:28.968Z,12.98
2023-03-26T19:58:59.325Z,13.14
2023-03-26T20:01:29.794Z,12.35
2023-03-26T20:04:10.812Z,13.18
2023-03-26T20:06:44.223Z,12.79
2023-03-26T20:09:20.556Z,13.00
2023-03-26T20:12:06.505Z,12.45
2023-03-26T20:14:39.003Z,12.94
2023-03-26T20:17:21.905Z,12.22
2023-03-26T20:19:48.815Z,12.60
2023-03-26T20:22:36.133Z,12.29
2023-03-26T20:27:43.236Z,11.94
2023-03-26T20:30:14.027Z,12.99
2023-03-26T20:32:51.044Z,12.43
2023-03-26T20:35:52.438Z,12.74
2023-03-26T20:38:26.491Z,12.52
2023-03-26T20:41:13.754Z,13.51
2023-03-26T20:43:41.237Z,12.89
2023-03-26T20:46:17.782Z,13.21
2023-03-26T20:48:45.831Z,13.38
2023-03-26T20:51:24.773Z,13.10
2023-03-26T20:53:51.431Z,13.21
2023-03-26T20:56:19.787Z,13.17
2023-03-26T20:58:54.751Z,12.83
2023-03-26T21:01:29.463Z,12.72
2023-03-26T21:04:00.238Z,13.04
2023-03-26T21:06:29.748Z,13.17
2023-03-26T21:08:56.777Z,13.22
2023-03-26T21:11:29.834Z,13.20
2023-03-26T21:14:02.034Z,13.25
2023-03-26T21:16:32.415Z,12.91
2023-03-26T21:18:59.614Z,13.25
2023-03-26T21:21:51.243Z,13.18
2023-03-26T21:24:27.924Z,13.17
2023-03-26T21:27:06.710Z,12.47
2023-03-26T21:29:49.816Z,13.03
2023-03-26T21:32:19.382Z,12.11
2023-03-26T21:34:59.216Z,12.11
2023-03-26T21:37:28.164Z,12.10
2023-03-26T21:39:56.747Z,12.57
2023-03-26T21:42:37.938Z,13.01
2023-03-26T21:45:07.004Z,12.82
2023-03-26T21:47:37.187Z,12.16
2023-03-26T21:50:17.786Z,12.88
2023-03-26T21:52:51.180Z,12.92
2023-03-26T21:55:27.015Z,12.93
2023-03-26T21:58:47.868Z,12.54
2023-03-26T22:01:44.641Z,12.82
2023-03-26T22:04:43.594Z,12.87
2023-03-26T22:07:53.796Z,12.84
2023-03-26T22:10:21.304Z,12.73
2023-03-26T22:12:48.294Z,12.97
2023-03-26T22:15:23.782Z,12.88
2023-03-26T22:18:02.027Z,13.02
2023-03-26T22:20:29.407Z,12.91
2023-03-26T22:22:56.244Z,12.38
2023-03-26T22:25:31.297Z,12.80
2023-03-26T22:28:00.743Z,12.75
2023-03-26T22:30:27.541Z,12.57
2023-03-26T22:32:54.539Z,12.61
2023-03-26T22:35:23.519Z,12.14
2023-03-26T22:38:00.777Z,12.77
2023-03-26T22:40:29.970Z,12.34
2023-03-26T22:42:57.003Z,12.75
2023-03-26T22:45:32.535Z,12.37
2023-03-26T22:48:03.012Z,12.43
2023-03-26T22:50:33.709Z,12.64
2023-03-26T22:53:00.623Z,12.70
2023-03-26T22:55:28.791Z,12.68
2023-03-26T22:58:00.929Z,12.71
2023-03-26T23:00:28.236Z,12.73
2023-03-26T23:03:00.931Z,12.52
2023-03-26T23:05:27.817Z,12.69
2023-03-26T23:07:54.616Z,12.58
2023-03-26T23:10:22.356Z,12.42
2023-03-26T23:12:55.388Z,12.59
2023-03-26T23:15:22.268Z,12.53
2023-03-26T23:17:57.777Z,12.66
2023-03-26T23:20:24.436Z,12.60
2023-03-26T23:22:51.429Z,12.65
2023-03-26T23:25:18.284Z,12.40
2023-03-26T23:27:44.954Z,11.79
2023-03-26T23:30:20.905Z,12.65
2023-03-26T23:32:48.078Z,11.81
2023-03-26T23:35:15.051Z,12.45
2023-03-26T23:37:59.963Z,12.29
2023-03-26T23:40:32.357Z,11.32
2023-03-26T23:43:05.504Z,12.59
2023-03-26T23:45:33.460Z,12.60
2023-03-26T23:48:04.562Z,11.71
2023-03-26T23:50:45.990Z,11.34
2023-03-26T23:53:16.003Z,11.61
2023-03-26T23:55:47.611Z,12.44
2023-03-26T23:58:20.223Z,12.43
